Airfield :
LOGIN :

Register | Disclaimer

   EN    FR    IT 

 










Legend :    VFR   Marginal VFR   IFR   Intensive IFR   Very Intensive IFR
Visi :
Ceiling :
>= 8 km
>= 3000ft
5 to 8 km
1000 to 3000 ft
1500m to 5 km
500 to 1000 ft
800 to 1500m
200 to 500 ft
< 800m
< 200 ft
Symbols :   Thunderstorms  Fog  Heavy snow  Heavy precipitations  Wind > 20 kt
SIGMETs :     Misc.  Thunderstorms  Icing  Turbulence  Mountain Waves  Volcanic Ashes







- Airport Elevation : 265 ft
- Download approach charts


LFMC - Le Luc

CURRENT METAR :
  • 210700Z 00000KT 0800 0550 FG SCT005 M02/M02 Q1014

EXPIRED METARs :
  • 210647Z 00000KT 0800 FG NSC M02/M02 Q1014
  • 210600Z 00000KT 4700 NSC M02/M02 Q1014
  • 210530Z AUTO 00000KT 1400 0650 BCFG VV/// M01/M02 Q1014
  • 210500Z AUTO 00000KT 1400 BCFG VV/// M01/M01 Q1014
  • 210430Z AUTO 29002KT 0200 FZFG ////// M01/M01 Q1014

TAF N/A
No reported NOTAMs for that airfield.



MET'MAP, your aeronautical weather chart ! - Copyright ORBIFLY December 2007 - Disclaimer

ORBIFLY MET'MAP TEAM :

Programming & Development : Alexandra Zaïnal
Concept & Development : Baudouin d'Aumeries
Co-Development & Prog : Marc-Olivier Méhu
Technical & hardware support : Manuel Goepfert

Contact : metmap@orbifly.com




SOURCES & CREDITS :

   NOAA